sensor_id;sensor_type;location;lat;lon;timestamp;temperature;humidity
77693;SHT31;66984;47.404;18.836;2023-04-01T00:00:51;11.41;75.96
77693;SHT31;66984;47.404;18.836;2023-04-01T00:01:54;11.39;75.98
77693;SHT31;66984;47.404;18.836;2023-04-01T00:02:58;11.42;75.98
77693;SHT31;66984;47.404;18.836;2023-04-01T00:04:03;11.41;76.14
77693;SHT31;66984;47.404;18.836;2023-04-01T00:05:06;11.35;76.44
77693;SHT31;66984;47.404;18.836;2023-04-01T00:06:13;11.36;76.60
77693;SHT31;66984;47.404;18.836;2023-04-01T00:07:16;11.32;76.65
77693;SHT31;66984;47.404;18.836;2023-04-01T00:08:19;11.27;76.80
77693;SHT31;66984;47.404;18.836;2023-04-01T00:09:22;11.27;76.89
77693;SHT31;66984;47.404;18.836;2023-04-01T00:10:30;11.25;76.99
77693;SHT31;66984;47.404;18.836;2023-04-01T00:11:35;11.25;77.18
77693;SHT31;66984;47.404;18.836;2023-04-01T00:12:38;11.21;77.31
77693;SHT31;66984;47.404;18.836;2023-04-01T00:13:43;11.15;77.67
77693;SHT31;66984;47.404;18.836;2023-04-01T00:14:46;11.01;78.42
77693;SHT31;66984;47.404;18.836;2023-04-01T00:15:49;10.99;78.57
77693;SHT31;66984;47.404;18.836;2023-04-01T00:16:52;10.92;78.97
77693;SHT31;66984;47.404;18.836;2023-04-01T00:17:55;10.87;79.21
77693;SHT31;66984;47.404;18.836;2023-04-01T00:18:58;10.87;79.38
77693;SHT31;66984;47.404;18.836;2023-04-01T00:20:01;10.83;79.40
77693;SHT31;66984;47.404;18.836;2023-04-01T00:21:05;10.77;79.74
77693;SHT31;66984;47.404;18.836;2023-04-01T00:22:08;10.77;79.87
77693;SHT31;66984;47.404;18.836;2023-04-01T00:23:14;10.73;80.24
77693;SHT31;66984;47.404;18.836;2023-04-01T00:24:18;10.73;80.13
77693;SHT31;66984;47.404;18.836;2023-04-01T00:25:21;10.76;80.14
77693;SHT31;66984;47.404;18.836;2023-04-01T00:26:25;10.76;80.20
77693;SHT31;66984;47.404;18.836;2023-04-01T00:27:28;10.72;80.50
77693;SHT31;66984;47.404;18.836;2023-04-01T00:28:31;10.66;80.72
77693;SHT31;66984;47.404;18.836;2023-04-01T00:29:36;10.67;80.80
77693;SHT31;66984;47.404;18.836;2023-04-01T00:30:38;10.69;80.71
77693;SHT31;66984;47.404;18.836;2023-04-01T00:31:41;10.70;80.57
77693;SHT31;66984;47.404;18.836;2023-04-01T00:32:44;10.73;80.47
77693;SHT31;66984;47.404;18.836;2023-04-01T00:33:47;10.73;80.56
77693;SHT31;66984;47.404;18.836;2023-04-01T00:34:51;10.72;80.59
77693;SHT31;66984;47.404;18.836;2023-04-01T00:35:55;10.74;80.63
77693;SHT31;66984;47.404;18.836;2023-04-01T00:36:58;10.72;80.57
77693;SHT31;66984;47.404;18.836;2023-04-01T00:38:02;10.79;80.39
77693;SHT31;66984;47.404;18.836;2023-04-01T00:39:05;10.79;80.23
77693;SHT31;66984;47.404;18.836;2023-04-01T00:41:26;10.84;79.90
77693;SHT31;66984;47.404;18.836;2023-04-01T00:42:31;10.84;79.79
77693;SHT31;66984;47.404;18.836;2023-04-01T00:43:34;10.84;79.70
77693;SHT31;66984;47.404;18.836;2023-04-01T00:44:38;10.81;79.67
77693;SHT31;66984;47.404;18.836;2023-04-01T00:45:42;10.79;79.76
77693;SHT31;66984;47.404;18.836;2023-04-01T00:46:45;10.79;79.79
77693;SHT31;66984;47.404;18.836;2023-04-01T00:47:49;10.73;79.69
77693;SHT31;66984;47.404;18.836;2023-04-01T00:48:54;10.66;80.18
77693;SHT31;66984;47.404;18.836;2023-04-01T00:49:57;10.65;80.33
77693;SHT31;66984;47.404;18.836;2023-04-01T00:51:28;10.63;80.07
77693;SHT31;66984;47.404;18.836;2023-04-01T00:52:31;10.63;80.06
77693;SHT31;66984;47.404;18.836;2023-04-01T00:53:39;10.65;80.00
77693;SHT31;66984;47.404;18.836;2023-04-01T00:54:46;10.66;79.95
77693;SHT31;66984;47.404;18.836;2023-04-01T00:55:55;10.67;79.93
77693;SHT31;66984;47.404;18.836;2023-04-01T00:57:22;10.72;79.84
77693;SHT31;66984;47.404;18.836;2023-04-01T00:58:29;10.69;79.96
77693;SHT31;66984;47.404;18.836;2023-04-01T00:59:40;10.72;79.94
77693;SHT31;66984;47.404;18.836;2023-04-01T01:00:46;10.73;79.87
77693;SHT31;66984;47.404;18.836;2023-04-01T01:01:51;10.72;79.73
77693;SHT31;66984;47.404;18.836;2023-04-01T01:02:54;10.80;79.67
77693;SHT31;66984;47.404;18.836;2023-04-01T01:03:57;10.80;79.55
77693;SHT31;66984;47.404;18.836;2023-04-01T01:05:00;10.81;79.65
77693;SHT31;66984;47.404;18.836;2023-04-01T01:07:39;10.86;79.41
77693;SHT31;66984;47.404;18.836;2023-04-01T01:10:24;10.99;79.29
77693;SHT31;66984;47.404;18.836;2023-04-01T01:11:42;11.03;79.25
77693;SHT31;66984;47.404;18.836;2023-04-01T01:12:58;11.01;79.15
77693;SHT31;66984;47.404;18.836;2023-04-01T01:14:13;10.99;79.14
77693;SHT31;66984;47.404;18.836;2023-04-01T01:15:30;11.03;79.10
77693;SHT31;66984;47.404;18.836;2023-04-01T01:16:42;11.00;79.11
77693;SHT31;66984;47.404;18.836;2023-04-01T01:22:39;10.87;79.17
77693;SHT31;66984;47.404;18.836;2023-04-01T01:25:33;10.84;79.04
77693;SHT31;66984;47.404;18.836;2023-04-01T01:27:06;10.87;79.07
77693;SHT31;66984;47.404;18.836;2023-04-01T01:30:42;10.97;78.83
77693;SHT31;66984;47.404;18.836;2023-04-01T01:34:36;10.97;78.97
77693;SHT31;66984;47.404;18.836;2023-04-01T01:35:46;10.92;79.10
77693;SHT31;66984;47.404;18.836;2023-04-01T01:36:53;10.92;79.19
77693;SHT31;66984;47.404;18.836;2023-04-01T01:38:00;10.92;79.23
77693;SHT31;66984;47.404;18.836;2023-04-01T01:39:06;10.94;79.24
77693;SHT31;66984;47.404;18.836;2023-04-01T01:40:11;10.97;79.26
77693;SHT31;66984;47.404;18.836;2023-04-01T01:41:16;10.97;79.15
77693;SHT31;66984;47.404;18.836;2023-04-01T01:42:22;10.97;79.01
77693;SHT31;66984;47.404;18.836;2023-04-01T01:43:30;10.99;78.91
77693;SHT31;66984;47.404;18.836;2023-04-01T01:44:35;11.00;78.88
77693;SHT31;66984;47.404;18.836;2023-04-01T01:45:44;11.04;78.82
77693;SHT31;66984;47.404;18.836;2023-04-01T01:46:48;11.06;78.72
77693;SHT31;66984;47.404;18.836;2023-04-01T01:47:51;11.04;78.62
77693;SHT31;66984;47.404;18.836;2023-04-01T01:48:55;11.06;78.60
77693;SHT31;66984;47.404;18.836;2023-04-01T01:49:59;11.06;78.53
77693;SHT31;66984;47.404;18.836;2023-04-01T01:51:05;11.04;78.59
77693;SHT31;66984;47.404;18.836;2023-04-01T01:52:08;11.04;78.58
77693;SHT31;66984;47.404;18.836;2023-04-01T01:53:12;11.11;78.50
77693;SHT31;66984;47.404;18.836;2023-04-01T01:54:17;11.07;78.30
77693;SHT31;66984;47.404;18.836;2023-04-01T01:55:33;11.03;78.13
77693;SHT31;66984;47.404;18.836;2023-04-01T01:56:36;11.07;78.05
77693;SHT31;66984;47.404;18.836;2023-04-01T01:57:42;11.08;78.01
77693;SHT31;66984;47.404;18.836;2023-04-01T01:58:53;11.06;77.90
77693;SHT31;66984;47.404;18.836;2023-04-01T02:00:16;11.06;77.93
77693;SHT31;66984;47.404;18.836;2023-04-01T02:01:24;10.99;78.29
77693;SHT31;66984;47.404;18.836;2023-04-01T02:02:28;10.94;78.73
77693;SHT31;66984;47.404;18.836;2023-04-01T02:03:35;10.90;78.89
77693;SHT31;66984;47.404;18.836;2023-04-01T02:04:41;10.86;79.24
77693;SHT31;66984;47.404;18.836;2023-04-01T02:05:45;10.84;79.34
77693;SHT31;66984;47.404;18.836;2023-04-01T02:07:02;10.80;79.27
77693;SHT31;66984;47.404;18.836;2023-04-01T02:08:13;10.80;79.19
77693;SHT31;66984;47.404;18.836;2023-04-01T02:09:18;10.72;79.20
77693;SHT31;66984;47.404;18.836;2023-04-01T02:10:25;10.72;79.26
77693;SHT31;66984;47.404;18.836;2023-04-01T02:11:45;10.77;79.19
77693;SHT31;66984;47.404;18.836;2023-04-01T02:12:53;10.81;79.20
77693;SHT31;66984;47.404;18.836;2023-04-01T02:15:21;10.86;79.07
77693;SHT31;66984;47.404;18.836;2023-04-01T02:16:36;10.87;78.94
77693;SHT31;66984;47.404;18.836;2023-04-01T02:17:43;10.93;78.78
77693;SHT31;66984;47.404;18.836;2023-04-01T02:18:49;10.96;78.59
77693;SHT31;66984;47.404;18.836;2023-04-01T02:20:00;10.97;78.51
77693;SHT31;66984;47.404;18.836;2023-04-01T02:21:05;11.00;78.45
77693;SHT31;66984;47.404;18.836;2023-04-01T02:22:12;11.01;78.37
77693;SHT31;66984;47.404;18.836;2023-04-01T02:23:17;11.00;78.34
77693;SHT31;66984;47.404;18.836;2023-04-01T02:24:20;11.01;78.26
77693;SHT31;66984;47.404;18.836;2023-04-01T02:25:29;11.04;78.08
77693;SHT31;66984;47.404;18.836;2023-04-01T02:26:34;11.07;77.98
77693;SHT31;66984;47.404;18.836;2023-04-01T02:27:38;11.08;77.96
77693;SHT31;66984;47.404;18.836;2023-04-01T02:28:43;11.10;77.89
77693;SHT31;66984;47.404;18.836;2023-04-01T02:29:47;11.11;77.81
77693;SHT31;66984;47.404;18.836;2023-04-01T02:30:51;11.13;77.72
77693;SHT31;66984;47.404;18.836;2023-04-01T02:31:54;11.15;77.62
77693;SHT31;66984;47.404;18.836;2023-04-01T02:32:58;11.15;77.51
77693;SHT31;66984;47.404;18.836;2023-04-01T02:34:03;11.15;77.52
77693;SHT31;66984;47.404;18.836;2023-04-01T02:35:11;11.17;77.31
77693;SHT31;66984;47.404;18.836;2023-04-01T02:36:16;11.18;77.10
77693;SHT31;66984;47.404;18.836;2023-04-01T02:37:19;11.17;77.01
77693;SHT31;66984;47.404;18.836;2023-04-01T02:38:22;11.17;76.97
77693;SHT31;66984;47.404;18.836;2023-04-01T02:39:26;11.18;76.79
77693;SHT31;66984;47.404;18.836;2023-04-01T02:40:29;11.17;76.59
77693;SHT31;66984;47.404;18.836;2023-04-01T02:41:38;11.18;76.51
77693;SHT31;66984;47.404;18.836;2023-04-01T02:42:41;11.18;76.34
77693;SHT31;66984;47.404;18.836;2023-04-01T02:43:44;11.17;76.30
77693;SHT31;66984;47.404;18.836;2023-04-01T02:44:47;11.14;76.25
77693;SHT31;66984;47.404;18.836;2023-04-01T02:45:50;11.13;76.24
77693;SHT31;66984;47.404;18.836;2023-04-01T02:46:53;11.11;76.16
77693;SHT31;66984;47.404;18.836;2023-04-01T02:47:56;11.11;76.11
77693;SHT31;66984;47.404;18.836;2023-04-01T02:48:59;11.08;75.98
77693;SHT31;66984;47.404;18.836;2023-04-01T02:50:02;11.04;75.84
77693;SHT31;66984;47.404;18.836;2023-04-01T02:51:06;11.01;75.96
77693;SHT31;66984;47.404;18.836;2023-04-01T02:52:08;11.00;76.02
77693;SHT31;66984;47.404;18.836;2023-04-01T02:53:11;10.89;75.25
77693;SHT31;66984;47.404;18.836;2023-04-01T02:54:14;10.79;75.13
77693;SHT31;66984;47.404;18.836;2023-04-01T02:55:17;10.74;75.34
77693;SHT31;66984;47.404;18.836;2023-04-01T02:56:20;10.65;75.60
77693;SHT31;66984;47.404;18.836;2023-04-01T02:57:24;10.63;75.80
77693;SHT31;66984;47.404;18.836;2023-04-01T02:58:27;10.60;75.94
77693;SHT31;66984;47.404;18.836;2023-04-01T02:59:30;10.62;76.21
77693;SHT31;66984;47.404;18.836;2023-04-01T03:00:33;10.60;76.35
77693;SHT31;66984;47.404;18.836;2023-04-01T03:01:36;10.60;76.26
77693;SHT31;66984;47.404;18.836;2023-04-01T03:02:39;10.62;76.24
77693;SHT31;66984;47.404;18.836;2023-04-01T03:03:42;10.65;76.29
77693;SHT31;66984;47.404;18.836;2023-04-01T03:04:44;10.63;76.27
77693;SHT31;66984;47.404;18.836;2023-04-01T03:05:48;10.63;76.22
77693;SHT31;66984;47.404;18.836;2023-04-01T03:06:51;10.65;76.17
77693;SHT31;66984;47.404;18.836;2023-04-01T03:07:54;10.69;76.07
77693;SHT31;66984;47.404;18.836;2023-04-01T03:08:57;10.63;75.76
77693;SHT31;66984;47.404;18.836;2023-04-01T03:10:00;10.57;75.39
77693;SHT31;66984;47.404;18.836;2023-04-01T03:11:03;10.55;75.36
77693;SHT31;66984;47.404;18.836;2023-04-01T03:12:06;10.52;75.39
77693;SHT31;66984;47.404;18.836;2023-04-01T03:13:09;10.50;75.39
77693;SHT31;66984;47.404;18.836;2023-04-01T03:14:12;10.52;75.24
77693;SHT31;66984;47.404;18.836;2023-04-01T03:15:15;10.49;75.02
77693;SHT31;66984;47.404;18.836;2023-04-01T03:16:18;10.45;75.00
77693;SHT31;66984;47.404;18.836;2023-04-01T03:17:21;10.45;75.01
77693;SHT31;66984;47.404;18.836;2023-04-01T03:18:24;10.44;74.96
77693;SHT31;66984;47.404;18.836;2023-04-01T03:19:27;10.41;74.98
77693;SHT31;66984;47.404;18.836;2023-04-01T03:20:30;10.44;75.21
77693;SHT31;66984;47.404;18.836;2023-04-01T03:21:33;10.35;75.06
77693;SHT31;66984;47.404;18.836;2023-04-01T03:22:36;10.34;75.07
77693;SHT31;66984;47.404;18.836;2023-04-01T03:23:43;10.32;75.13
77693;SHT31;66984;47.404;18.836;2023-04-01T03:24:49;10.34;75.33
77693;SHT31;66984;47.404;18.836;2023-04-01T03:25:52;10.29;75.57
77693;SHT31;66984;47.404;18.836;2023-04-01T03:26:55;10.28;75.74
77693;SHT31;66984;47.404;18.836;2023-04-01T03:27:58;10.26;75.81
77693;SHT31;66984;47.404;18.836;2023-04-01T03:29:02;10.24;75.97
77693;SHT31;66984;47.404;18.836;2023-04-01T03:30:06;10.11;76.03
77693;SHT31;66984;47.404;18.836;2023-04-01T03:31:10;10.01;76.20
77693;SHT31;66984;47.404;18.836;2023-04-01T03:32:13;9.91;76.39
77693;SHT31;66984;47.404;18.836;2023-04-01T03:33:16;9.91;76.57
77693;SHT31;66984;47.404;18.836;2023-04-01T03:34:19;9.87;76.83
77693;SHT31;66984;47.404;18.836;2023-04-01T03:35:21;9.88;76.96
77693;SHT31;66984;47.404;18.836;2023-04-01T03:36:24;9.90;77.04
77693;SHT31;66984;47.404;18.836;2023-04-01T03:37:28;9.90;77.06
77693;SHT31;66984;47.404;18.836;2023-04-01T03:38:30;9.93;77.10
77693;SHT31;66984;47.404;18.836;2023-04-01T03:39:33;9.95;77.16
77693;SHT31;66984;47.404;18.836;2023-04-01T03:40:37;9.94;77.00
77693;SHT31;66984;47.404;18.836;2023-04-01T03:41:45;9.95;77.06
77693;SHT31;66984;47.404;18.836;2023-04-01T03:42:49;9.94;77.00
77693;SHT31;66984;47.404;18.836;2023-04-01T03:43:53;9.95;76.91
77693;SHT31;66984;47.404;18.836;2023-04-01T03:44:56;9.97;76.90
77693;SHT31;66984;47.404;18.836;2023-04-01T03:45:59;9.95;76.77
77693;SHT31;66984;47.404;18.836;2023-04-01T03:47:02;9.95;76.80
77693;SHT31;66984;47.404;18.836;2023-04-01T03:48:05;9.94;76.98
77693;SHT31;66984;47.404;18.836;2023-04-01T03:49:09;9.94;77.24
77693;SHT31;66984;47.404;18.836;2023-04-01T03:50:15;9.95;77.04
77693;SHT31;66984;47.404;18.836;2023-04-01T03:51:18;9.91;76.92
77693;SHT31;66984;47.404;18.836;2023-04-01T03:52:21;9.95;76.96
77693;SHT31;66984;47.404;18.836;2023-04-01T03:53:24;9.98;76.84
77693;SHT31;66984;47.404;18.836;2023-04-01T03:54:27;9.95;76.65
77693;SHT31;66984;47.404;18.836;2023-04-01T03:55:30;9.97;76.35
77693;SHT31;66984;47.404;18.836;2023-04-01T03:56:33;9.97;76.36
77693;SHT31;66984;47.404;18.836;2023-04-01T03:57:36;9.95;76.51
77693;SHT31;66984;47.404;18.836;2023-04-01T03:58:39;9.98;76.58
77693;SHT31;66984;47.404;18.836;2023-04-01T03:59:42;9.99;76.45
77693;SHT31;66984;47.404;18.836;2023-04-01T04:00:45;9.98;76.49
77693;SHT31;66984;47.404;18.836;2023-04-01T04:01:48;9.97;76.45
77693;SHT31;66984;47.404;18.836;2023-04-01T04:02:51;9.97;76.26
77693;SHT31;66984;47.404;18.836;2023-04-01T04:03:54;9.99;76.33
77693;SHT31;66984;47.404;18.836;2023-04-01T04:04:57;9.94;76.45
77693;SHT31;66984;47.404;18.836;2023-04-01T04:06:00;9.94;76.44
77693;SHT31;66984;47.404;18.836;2023-04-01T04:07:03;9.97;76.41
77693;SHT31;66984;47.404;18.836;2023-04-01T04:08:06;9.93;76.21
77693;SHT31;66984;47.404;18.836;2023-04-01T04:09:09;9.90;75.88
77693;SHT31;66984;47.404;18.836;2023-04-01T04:10:12;9.86;75.25
77693;SHT31;66984;47.404;18.836;2023-04-01T04:11:15;9.86;75.57
77693;SHT31;66984;47.404;18.836;2023-04-01T04:12:18;9.81;75.76
77693;SHT31;66984;47.404;18.836;2023-04-01T04:13:21;9.78;75.63
77693;SHT31;66984;47.404;18.836;2023-04-01T04:14:24;9.78;75.88
77693;SHT31;66984;47.404;18.836;2023-04-01T04:15:27;9.76;75.87
77693;SHT31;66984;47.404;18.836;2023-04-01T04:16:30;9.73;75.91
77693;SHT31;66984;47.404;18.836;2023-04-01T04:17:33;9.74;76.07
77693;SHT31;66984;47.404;18.836;2023-04-01T04:18:36;9.71;76.16
77693;SHT31;66984;47.404;18.836;2023-04-01T04:19:39;9.70;76.09
77693;SHT31;66984;47.404;18.836;2023-04-01T04:20:46;9.71;76.02
77693;SHT31;66984;47.404;18.836;2023-04-01T04:21:53;9.69;76.12
77693;SHT31;66984;47.404;18.836;2023-04-01T04:22:56;9.66;76.29
77693;SHT31;66984;47.404;18.836;2023-04-01T04:24:00;9.67;76.39
77693;SHT31;66984;47.404;18.836;2023-04-01T04:25:03;9.66;76.25
77693;SHT31;66984;47.404;18.836;2023-04-01T04:26:08;9.66;76.03
77693;SHT31;66984;47.404;18.836;2023-04-01T04:27:11;9.63;75.94
77693;SHT31;66984;47.404;18.836;2023-04-01T04:28:14;9.63;76.01
77693;SHT31;66984;47.404;18.836;2023-04-01T04:29:17;9.61;76.07
77693;SHT31;66984;47.404;18.836;2023-04-01T04:30:20;9.58;76.05
77693;SHT31;66984;47.404;18.836;2023-04-01T04:31:24;9.56;76.23
77693;SHT31;66984;47.404;18.836;2023-04-01T04:32:27;9.57;76.56
77693;SHT31;66984;47.404;18.836;2023-04-01T04:33:32;9.57;76.44
77693;SHT31;66984;47.404;18.836;2023-04-01T04:34:35;9.57;76.30
77693;SHT31;66984;47.404;18.836;2023-04-01T04:35:38;9.56;76.19
77693;SHT31;66984;47.404;18.836;2023-04-01T04:36:41;9.57;76.17
77693;SHT31;66984;47.404;18.836;2023-04-01T04:37:43;9.56;76.15
77693;SHT31;66984;47.404;18.836;2023-04-01T04:38:47;9.56;76.02
77693;SHT31;66984;47.404;18.836;2023-04-01T04:39:50;9.60;76.22
77693;SHT31;66984;47.404;18.836;2023-04-01T04:40:53;9.58;75.91
77693;SHT31;66984;47.404;18.836;2023-04-01T04:41:56;9.58;75.78
77693;SHT31;66984;47.404;18.836;2023-04-01T04:42:59;9.54;75.84
77693;SHT31;66984;47.404;18.836;2023-04-01T04:44:03;9.51;75.88
77693;SHT31;66984;47.404;18.836;2023-04-01T04:45:06;9.56;75.86
77693;SHT31;66984;47.404;18.836;2023-04-01T04:46:10;9.54;75.83
77693;SHT31;66984;47.404;18.836;2023-04-01T04:47:13;9.57;75.86
77693;SHT31;66984;47.404;18.836;2023-04-01T04:48:16;9.56;75.84
77693;SHT31;66984;47.404;18.836;2023-04-01T04:49:21;9.57;75.76
77693;SHT31;66984;47.404;18.836;2023-04-01T04:50:24;9.54;75.72
77693;SHT31;66984;47.404;18.836;2023-04-01T04:51:28;9.56;75.85
77693;SHT31;66984;47.404;18.836;2023-04-01T04:52:30;9.54;75.87
77693;SHT31;66984;47.404;18.836;2023-04-01T04:53:33;9.56;76.08
77693;SHT31;66984;47.404;18.836;2023-04-01T04:54:36;9.57;76.15
77693;SHT31;66984;47.404;18.836;2023-04-01T04:55:49;9.58;75.94
77693;SHT31;66984;47.404;18.836;2023-04-01T04:56:53;9.63;75.91
77693;SHT31;66984;47.404;18.836;2023-04-01T04:57:56;9.61;76.16
77693;SHT31;66984;47.404;18.836;2023-04-01T04:58:59;9.63;76.11
77693;SHT31;66984;47.404;18.836;2023-04-01T05:00:03;9.61;76.06
77693;SHT31;66984;47.404;18.836;2023-04-01T05:01:11;9.66;76.17
77693;SHT31;66984;47.404;18.836;2023-04-01T05:02:14;9.67;76.18
77693;SHT31;66984;47.404;18.836;2023-04-01T05:03:17;9.70;76.18
77693;SHT31;66984;47.404;18.836;2023-04-01T05:04:20;9.70;76.60
77693;SHT31;66984;47.404;18.836;2023-04-01T05:05:23;9.74;76.63
77693;SHT31;66984;47.404;18.836;2023-04-01T05:06:26;9.78;76.63
77693;SHT31;66984;47.404;18.836;2023-04-01T05:07:33;9.83;76.69
77693;SHT31;66984;47.404;18.836;2023-04-01T05:08:36;9.81;76.93
77693;SHT31;66984;47.404;18.836;2023-04-01T05:09:41;9.81;77.06
77693;SHT31;66984;47.404;18.836;2023-04-01T05:10:44;9.80;77.14
77693;SHT31;66984;47.404;18.836;2023-04-01T05:11:47;9.84;77.21
77693;SHT31;66984;47.404;18.836;2023-04-01T05:12:50;9.88;76.96
77693;SHT31;66984;47.404;18.836;2023-04-01T05:13:53;9.90;76.75
77693;SHT31;66984;47.404;18.836;2023-04-01T05:14:56;9.91;76.76
77693;SHT31;66984;47.404;18.836;2023-04-01T05:15:58;9.94;76.66
77693;SHT31;66984;47.404;18.836;2023-04-01T05:17:01;9.94;76.70
77693;SHT31;66984;47.404;18.836;2023-04-01T05:18:04;9.94;76.60
77693;SHT31;66984;47.404;18.836;2023-04-01T05:19:07;9.98;76.49
77693;SHT31;66984;47.404;18.836;2023-04-01T05:20:12;9.99;76.38
77693;SHT31;66984;47.404;18.836;2023-04-01T05:21:16;9.99;76.33
77693;SHT31;66984;47.404;18.836;2023-04-01T05:22:18;10.02;76.40
77693;SHT31;66984;47.404;18.836;2023-04-01T05:23:22;10.07;76.54
77693;SHT31;66984;47.404;18.836;2023-04-01T05:24:25;10.08;76.46
77693;SHT31;66984;47.404;18.836;2023-04-01T05:25:28;10.09;76.46
77693;SHT31;66984;47.404;18.836;2023-04-01T05:26:31;10.07;76.65
77693;SHT31;66984;47.404;18.836;2023-04-01T05:27:35;10.08;76.83
77693;SHT31;66984;47.404;18.836;2023-04-01T05:28:39;10.12;76.84
77693;SHT31;66984;47.404;18.836;2023-04-01T05:29:42;10.14;76.87
77693;SHT31;66984;47.404;18.836;2023-04-01T05:30:45;10.15;77.05
77693;SHT31;66984;47.404;18.836;2023-04-01T05:31:48;10.15;76.98
77693;SHT31;66984;47.404;18.836;2023-04-01T05:32:51;10.22;76.95
77693;SHT31;66984;47.404;18.836;2023-04-01T05:33:54;10.25;76.91
77693;SHT31;66984;47.404;18.836;2023-04-01T05:34:57;10.25;76.95
77693;SHT31;66984;47.404;18.836;2023-04-01T05:36:11;10.24;77.12
77693;SHT31;66984;47.404;18.836;2023-04-01T05:37:15;10.26;77.08
77693;SHT31;66984;47.404;18.836;2023-04-01T05:38:17;10.31;77.15
77693;SHT31;66984;47.404;18.836;2023-04-01T05:39:20;10.34;77.07
77693;SHT31;66984;47.404;18.836;2023-04-01T05:40:23;10.32;77.07
77693;SHT31;66984;47.404;18.836;2023-04-01T05:41:26;10.38;76.96
77693;SHT31;66984;47.404;18.836;2023-04-01T05:42:29;10.39;76.88
77693;SHT31;66984;47.404;18.836;2023-04-01T05:43:35;10.44;76.83
77693;SHT31;66984;47.404;18.836;2023-04-01T05:44:38;10.48;76.85
77693;SHT31;66984;47.404;18.836;2023-04-01T05:45:42;10.46;76.88
77693;SHT31;66984;47.404;18.836;2023-04-01T05:46:45;10.49;76.89
77693;SHT31;66984;47.404;18.836;2023-04-01T05:47:48;10.53;76.86
77693;SHT31;66984;47.404;18.836;2023-04-01T05:48:51;10.56;76.81
77693;SHT31;66984;47.404;18.836;2023-04-01T05:49:54;10.59;76.81
77693;SHT31;66984;47.404;18.836;2023-04-01T05:50:58;10.62;76.84
77693;SHT31;66984;47.404;18.836;2023-04-01T05:52:00;10.65;76.86
77693;SHT31;66984;47.404;18.836;2023-04-01T05:53:03;10.65;76.93
77693;SHT31;66984;47.404;18.836;2023-04-01T05:54:06;10.70;76.97
77693;SHT31;66984;47.404;18.836;2023-04-01T05:55:09;10.70;77.08
77693;SHT31;66984;47.404;18.836;2023-04-01T05:56:12;10.73;77.17
77693;SHT31;66984;47.404;18.836;2023-04-01T05:57:15;10.76;77.31
77693;SHT31;66984;47.404;18.836;2023-04-01T05:58:18;10.74;77.55
77693;SHT31;66984;47.404;18.836;2023-04-01T05:59:21;10.79;77.70
77693;SHT31;66984;47.404;18.836;2023-04-01T06:00:24;10.80;77.65
77693;SHT31;66984;47.404;18.836;2023-04-01T06:01:27;10.83;77.61
77693;SHT31;66984;47.404;18.836;2023-04-01T06:02:30;10.84;77.69
77693;SHT31;66984;47.404;18.836;2023-04-01T06:03:33;10.87;77.72
77693;SHT31;66984;47.404;18.836;2023-04-01T06:04:39;10.92;77.77
77693;SHT31;66984;47.404;18.836;2023-04-01T06:05:43;10.92;77.78
77693;SHT31;66984;47.404;18.836;2023-04-01T06:06:46;10.94;77.77
77693;SHT31;66984;47.404;18.836;2023-04-01T06:07:56;10.97;77.88
77693;SHT31;66984;47.404;18.836;2023-04-01T06:09:15;11.01;77.96
77693;SHT31;66984;47.404;18.836;2023-04-01T06:10:20;11.04;77.93
77693;SHT31;66984;47.404;18.836;2023-04-01T06:14:07;11.11;77.62
77693;SHT31;66984;47.404;18.836;2023-04-01T06:15:29;11.15;77.58
77693;SHT31;66984;47.404;18.836;2023-04-01T06:21:10;11.32;77.36
77693;SHT31;66984;47.404;18.836;2023-04-01T06:35:31;11.79;75.86
77693;SHT31;66984;47.404;18.836;2023-04-01T06:42:42;12.01;74.42
77693;SHT31;66984;47.404;18.836;2023-04-01T06:52:23;12.37;74.50
77693;SHT31;66984;47.404;18.836;2023-04-01T06:53:38;12.37;74.47
77693;SHT31;66984;47.404;18.836;2023-04-01T06:54:55;12.40;74.32
77693;SHT31;66984;47.404;18.836;2023-04-01T06:56:05;12.47;74.29
77693;SHT31;66984;47.404;18.836;2023-04-01T06:58:37;12.54;73.42
77693;SHT31;66984;47.404;18.836;2023-04-01T06:59:42;12.61;73.12
77693;SHT31;66984;47.404;18.836;2023-04-01T07:00:49;12.62;73.40
77693;SHT31;66984;47.404;18.836;2023-04-01T07:01:55;12.72;73.83
77693;SHT31;66984;47.404;18.836;2023-04-01T07:04:28;12.75;72.25
77693;SHT31;66984;47.404;18.836;2023-04-01T07:05:33;12.82;71.70
77693;SHT31;66984;47.404;18.836;2023-04-01T07:06:38;12.88;70.83
77693;SHT31;66984;47.404;18.836;2023-04-01T07:07:48;12.92;70.63
77693;SHT31;66984;47.404;18.836;2023-04-01T07:08:55;12.98;71.00
77693;SHT31;66984;47.404;18.836;2023-04-01T07:10:13;12.99;70.45
77693;SHT31;66984;47.404;18.836;2023-04-01T07:11:31;13.02;70.47
77693;SHT31;66984;47.404;18.836;2023-04-01T07:12:46;13.12;70.53
77693;SHT31;66984;47.404;18.836;2023-04-01T07:14:00;13.16;70.27
77693;SHT31;66984;47.404;18.836;2023-04-01T07:15:16;13.20;70.68
77693;SHT31;66984;47.404;18.836;2023-04-01T07:16:46;13.27;70.43
77693;SHT31;66984;47.404;18.836;2023-04-01T07:18:02;13.36;70.87
77693;SHT31;66984;47.404;18.836;2023-04-01T07:20:22;13.43;70.52
77693;SHT31;66984;47.404;18.836;2023-04-01T07:21:49;13.44;69.55
77693;SHT31;66984;47.404;18.836;2023-04-01T07:22:59;13.50;70.31
77693;SHT31;66984;47.404;18.836;2023-04-01T07:24:17;13.57;70.67
77693;SHT31;66984;47.404;18.836;2023-04-01T07:25:30;13.63;70.12
77693;SHT31;66984;47.404;18.836;2023-04-01T07:26:33;13.73;70.37
77693;SHT31;66984;47.404;18.836;2023-04-01T07:27:36;13.79;70.49
77693;SHT31;66984;47.404;18.836;2023-04-01T07:28:39;13.87;69.60
77693;SHT31;66984;47.404;18.836;2023-04-01T07:29:42;13.84;67.87
77693;SHT31;66984;47.404;18.836;2023-04-01T07:32:15;13.81;65.79
77693;SHT31;66984;47.404;18.836;2023-04-01T07:39:59;13.89;66.55
77693;SHT31;66984;47.404;18.836;2023-04-01T07:45:19;13.84;65.22
77693;SHT31;66984;47.404;18.836;2023-04-01T07:49:08;13.84;64.84
77693;SHT31;66984;47.404;18.836;2023-04-01T07:50:33;13.82;64.74
77693;SHT31;66984;47.404;18.836;2023-04-01T07:51:47;13.84;64.90
77693;SHT31;66984;47.404;18.836;2023-04-01T07:55:16;13.81;64.61
77693;SHT31;66984;47.404;18.836;2023-04-01T08:00:35;13.79;64.33
77693;SHT31;66984;47.404;18.836;2023-04-01T08:02:02;13.84;65.06
77693;SHT31;66984;47.404;18.836;2023-04-01T08:05:45;13.88;63.65
77693;SHT31;66984;47.404;18.836;2023-04-01T08:07:22;13.92;63.38
77693;SHT31;66984;47.404;18.836;2023-04-01T08:09:50;14.01;63.01
77693;SHT31;66984;47.404;18.836;2023-04-01T08:14:13;14.04;63.65
77693;SHT31;66984;47.404;18.836;2023-04-01T08:15:22;14.02;63.42